N21DC KVNY-KHND
Flight info
| Callsign | N21DC |
|---|---|
| Flight time | 1h 18m |
| Altitude | 13000 |
| Route | NUAL1 PMD V12 BASAL V394 OASYS |
| Aircraft | S22T/L-SDGRY/S |
Departure
| Time | 2026-05-06 21:34 |
|---|---|
| Airport | Van Nuys Airport (KVNY) |
Arrival
| Time | 2026-05-06 22:53 |
|---|---|
| Airport | Henderson Executive Airport (KHND) |
| Time | Latitude | Longitude | Altitude | Speed | Heading |
|---|---|---|---|---|---|
| 2026-05-06 21:13 | 34.21060 | -118.49200 | 787 ft | 0 kts | 48° |
| 2026-05-06 21:27 | 34.21061 | -118.49199 | 787 ft | 2 kts | 47° |
| 2026-05-06 21:27 | 34.21097 | -118.49167 | 787 ft | 10 kts | 5° |
| 2026-05-06 21:27 | 34.21185 | -118.49175 | 790 ft | 15 kts | 359° |
| 2026-05-06 21:28 | 34.21282 | -118.49184 | 791 ft | 11 kts | 354° |
| 2026-05-06 21:28 | 34.21376 | -118.49194 | 791 ft | 16 kts | 356° |
| 2026-05-06 21:28 | 34.21467 | -118.49202 | 791 ft | 6 kts | 353° |
| 2026-05-06 21:28 | 34.21523 | -118.49214 | 792 ft | 11 kts | 352° |
| 2026-05-06 21:29 | 34.21609 | -118.49224 | 797 ft | 14 kts | 353° |
| 2026-05-06 21:29 | 34.21716 | -118.49229 | 800 ft | 17 kts | 0° |
| 2026-05-06 21:29 | 34.21830 | -118.49238 | 803 ft | 11 kts | 354° |
| 2026-05-06 21:29 | 34.21869 | -118.49220 | 804 ft | 0 kts | 73° |
| 2026-05-06 21:30 | 34.21870 | -118.49220 | 804 ft | 0 kts | 73° |
| 2026-05-06 21:33 | 34.21877 | -118.49192 | 804 ft | 9 kts | 78° |
| 2026-05-06 21:33 | 34.21831 | -118.49119 | 803 ft | 14 kts | 177° |
| 2026-05-06 21:33 | 34.21625 | -118.49098 | 796 ft | 62 kts | 175° |
| 2026-05-06 21:34 | 34.21024 | -118.49040 | 834 ft | 100 kts | 175° |
| 2026-05-06 21:34 | 34.20327 | -118.48964 | 1086 ft | 103 kts | 176° |
| 2026-05-06 21:34 | 34.19621 | -118.48901 | 1370 ft | 101 kts | 175° |
| 2026-05-06 21:34 | 34.18918 | -118.48849 | 1641 ft | 101 kts | 177° |
| 2026-05-06 21:35 | 34.18225 | -118.48675 | 1882 ft | 104 kts | 154° |
| 2026-05-06 21:35 | 34.17700 | -118.48088 | 2203 ft | 102 kts | 126° |
| 2026-05-06 21:35 | 34.17328 | -118.47369 | 2485 ft | 101 kts | 123° |
| 2026-05-06 21:35 | 34.16942 | -118.46631 | 2746 ft | 104 kts | 125° |
| 2026-05-06 21:36 | 34.16480 | -118.45899 | 3042 ft | 115 kts | 126° |
| 2026-05-06 21:36 | 34.16022 | -118.45144 | 3501 ft | 111 kts | 125° |
| 2026-05-06 21:36 | 34.15604 | -118.44359 | 3895 ft | 113 kts | 114° |
| 2026-05-06 21:36 | 34.15260 | -118.43513 | 4344 ft | 111 kts | 107° |
| 2026-05-06 21:37 | 34.14979 | -118.42653 | 4830 ft | 110 kts | 105° |
| 2026-05-06 21:37 | 34.14734 | -118.41776 | 5257 ft | 110 kts | 101° |
| 2026-05-06 21:37 | 34.14839 | -118.40961 | 5704 ft | 98 kts | 44° |
| 2026-05-06 21:37 | 34.15361 | -118.40441 | 6130 ft | 98 kts | 24° |
| 2026-05-06 21:38 | 34.16024 | -118.40281 | 6538 ft | 98 kts | 10° |
| 2026-05-06 21:38 | 34.16690 | -118.40132 | 6900 ft | 99 kts | 13° |
| 2026-05-06 21:38 | 34.17368 | -118.39987 | 7278 ft | 100 kts | 14° |
| 2026-05-06 21:38 | 34.18051 | -118.39834 | 7668 ft | 99 kts | 13° |
| 2026-05-06 21:39 | 34.18723 | -118.39678 | 8062 ft | 99 kts | 14° |
| 2026-05-06 21:39 | 34.19401 | -118.39525 | 8467 ft | 99 kts | 15° |
| 2026-05-06 21:39 | 34.20074 | -118.39369 | 8873 ft | 98 kts | 14° |
| 2026-05-06 21:39 | 34.20744 | -118.39212 | 9277 ft | 98 kts | 16° |
| 2026-05-06 21:40 | 34.21417 | -118.39055 | 9699 ft | 98 kts | 16° |
| 2026-05-06 21:40 | 34.22083 | -118.38896 | 10108 ft | 97 kts | 16° |
| 2026-05-06 21:40 | 34.22740 | -118.38744 | 10466 ft | 98 kts | 16° |
| 2026-05-06 21:40 | 34.23414 | -118.38586 | 10848 ft | 99 kts | 15° |
| 2026-05-06 21:41 | 34.24095 | -118.38427 | 11233 ft | 100 kts | 15° |
| 2026-05-06 21:41 | 34.24782 | -118.38267 | 11619 ft | 101 kts | 15° |
| 2026-05-06 21:41 | 34.25478 | -118.38103 | 12000 ft | 103 kts | 15° |
| 2026-05-06 21:41 | 34.26182 | -118.37936 | 12391 ft | 103 kts | 15° |
| 2026-05-06 21:42 | 34.26887 | -118.37770 | 12785 ft | 104 kts | 15° |
| 2026-05-06 21:42 | 34.27619 | -118.37596 | 13032 ft | 118 kts | 15° |
| 2026-05-06 21:42 | 34.28496 | -118.37380 | 13044 ft | 138 kts | 14° |
| 2026-05-06 21:42 | 34.29479 | -118.37143 | 13043 ft | 151 kts | 14° |
| 2026-05-06 21:43 | 34.30524 | -118.36901 | 13043 ft | 159 kts | 14° |
| 2026-05-06 21:43 | 34.31631 | -118.36644 | 13038 ft | 165 kts | 14° |
| 2026-05-06 21:43 | 34.32762 | -118.36381 | 13036 ft | 167 kts | 13° |
| 2026-05-06 21:43 | 34.33918 | -118.36110 | 13038 ft | 171 kts | 14° |
| 2026-05-06 21:44 | 34.35087 | -118.35836 | 13029 ft | 172 kts | 14° |
| 2026-05-06 21:44 | 34.36257 | -118.35563 | 13028 ft | 171 kts | 14° |
| 2026-05-06 21:44 | 34.37424 | -118.35289 | 13025 ft | 170 kts | 13° |
| 2026-05-06 21:44 | 34.38586 | -118.35011 | 13017 ft | 170 kts | 14° |
| 2026-05-06 21:45 | 34.39754 | -118.34738 | 13016 ft | 171 kts | 14° |
| 2026-05-06 21:45 | 34.40911 | -118.34468 | 13011 ft | 172 kts | 14° |
| 2026-05-06 21:45 | 34.42089 | -118.34193 | 13007 ft | 173 kts | 13° |
| 2026-05-06 21:45 | 34.43266 | -118.33915 | 13009 ft | 173 kts | 14° |
| 2026-05-06 21:46 | 34.44444 | -118.33635 | 13009 ft | 172 kts | 14° |
| 2026-05-06 21:46 | 34.45598 | -118.33273 | 12996 ft | 170 kts | 24° |
| 2026-05-06 21:46 | 34.46614 | -118.32552 | 12991 ft | 169 kts | 37° |
| 2026-05-06 21:46 | 34.47430 | -118.31539 | 12983 ft | 169 kts | 51° |
| 2026-05-06 21:47 | 34.48127 | -118.30399 | 12982 ft | 168 kts | 51° |
| 2026-05-06 21:47 | 34.48839 | -118.29278 | 12980 ft | 168 kts | 50° |
| 2026-05-06 21:47 | 34.49545 | -118.28157 | 12981 ft | 167 kts | 50° |
| 2026-05-06 21:47 | 34.50235 | -118.27056 | 12984 ft | 166 kts | 51° |
| 2026-05-06 21:48 | 34.50931 | -118.25949 | 12996 ft | 164 kts | 51° |
| 2026-05-06 21:48 | 34.51621 | -118.24844 | 12995 ft | 165 kts | 51° |
| 2026-05-06 21:48 | 34.52317 | -118.23734 | 12998 ft | 166 kts | 50° |
| 2026-05-06 21:48 | 34.53015 | -118.22619 | 13000 ft | 166 kts | 51° |
| 2026-05-06 21:49 | 34.53710 | -118.21505 | 13002 ft | 165 kts | 51° |
| 2026-05-06 21:49 | 34.54396 | -118.20405 | 13003 ft | 164 kts | 50° |
| 2026-05-06 21:49 | 34.55090 | -118.19296 | 13007 ft | 166 kts | 51° |
| 2026-05-06 21:49 | 34.55788 | -118.18178 | 13012 ft | 167 kts | 51° |
| 2026-05-06 21:50 | 34.56483 | -118.17066 | 13016 ft | 168 kts | 51° |
| 2026-05-06 21:50 | 34.57188 | -118.15939 | 13016 ft | 167 kts | 51° |
| 2026-05-06 21:50 | 34.57890 | -118.14812 | 13014 ft | 168 kts | 50° |
| 2026-05-06 21:50 | 34.58599 | -118.13679 | 13015 ft | 169 kts | 51° |
| 2026-05-06 21:51 | 34.59306 | -118.12546 | 13016 ft | 168 kts | 51° |
| 2026-05-06 21:51 | 34.60012 | -118.11414 | 13016 ft | 168 kts | 51° |
| 2026-05-06 21:51 | 34.60717 | -118.10282 | 13016 ft | 168 kts | 51° |
| 2026-05-06 21:51 | 34.61423 | -118.09150 | 13015 ft | 168 kts | 51° |
| 2026-05-06 21:52 | 34.62129 | -118.08018 | 13014 ft | 168 kts | 51° |
| 2026-05-06 21:52 | 34.62809 | -118.06862 | 13010 ft | 169 kts | 57° |
| 2026-05-06 21:52 | 34.63226 | -118.05538 | 13004 ft | 173 kts | 72° |
| 2026-05-06 21:52 | 34.63395 | -118.04082 | 13001 ft | 174 kts | 77° |
| 2026-05-06 21:53 | 34.63555 | -118.02626 | 13008 ft | 174 kts | 77° |
| 2026-05-06 21:53 | 34.63718 | -118.01169 | 13002 ft | 174 kts | 77° |
| 2026-05-06 21:53 | 34.63879 | -117.99709 | 13005 ft | 174 kts | 77° |
| 2026-05-06 21:53 | 34.64039 | -117.98250 | 13004 ft | 174 kts | 77° |
| 2026-05-06 21:54 | 34.64199 | -117.96790 | 13003 ft | 174 kts | 77° |
| 2026-05-06 21:54 | 34.64359 | -117.95334 | 13002 ft | 174 kts | 77° |
| 2026-05-06 21:54 | 34.64519 | -117.93875 | 12997 ft | 175 kts | 77° |
| 2026-05-06 21:54 | 34.64678 | -117.92413 | 12992 ft | 175 kts | 77° |
| 2026-05-06 21:55 | 34.64837 | -117.90951 | 12993 ft | 175 kts | 77° |
| 2026-05-06 21:55 | 34.64994 | -117.89510 | 12991 ft | 175 kts | 77° |
| 2026-05-06 21:55 | 34.65154 | -117.88046 | 12986 ft | 175 kts | 77° |
| 2026-05-06 21:55 | 34.65313 | -117.86581 | 12981 ft | 175 kts | 77° |
| 2026-05-06 21:56 | 34.65473 | -117.85109 | 12973 ft | 176 kts | 77° |
| 2026-05-06 21:56 | 34.65631 | -117.83636 | 12976 ft | 176 kts | 77° |
| 2026-05-06 21:56 | 34.65791 | -117.82167 | 12973 ft | 176 kts | 77° |
| 2026-05-06 21:56 | 34.65950 | -117.80696 | 12968 ft | 175 kts | 77° |
| 2026-05-06 21:57 | 34.66109 | -117.79232 | 12963 ft | 175 kts | 77° |
| 2026-05-06 21:57 | 34.66267 | -117.77767 | 12962 ft | 175 kts | 77° |
| 2026-05-06 21:57 | 34.66425 | -117.76298 | 12944 ft | 175 kts | 77° |
| 2026-05-06 21:57 | 34.66584 | -117.74831 | 12944 ft | 175 kts | 77° |
| 2026-05-06 21:58 | 34.66741 | -117.73367 | 12942 ft | 175 kts | 77° |
| 2026-05-06 21:58 | 34.66898 | -117.71895 | 12938 ft | 176 kts | 78° |
| 2026-05-06 21:58 | 34.67058 | -117.70407 | 12961 ft | 176 kts | 78° |
| 2026-05-06 21:58 | 34.67213 | -117.68952 | 12965 ft | 175 kts | 78° |
| 2026-05-06 21:59 | 34.67372 | -117.67466 | 12972 ft | 176 kts | 77° |
| 2026-05-06 21:59 | 34.67526 | -117.66031 | 12976 ft | 176 kts | 77° |
| 2026-05-06 21:59 | 34.67682 | -117.64561 | 12979 ft | 176 kts | 78° |
| 2026-05-06 21:59 | 34.67841 | -117.63088 | 12980 ft | 176 kts | 77° |
| 2026-05-06 22:00 | 34.67997 | -117.61613 | 12987 ft | 176 kts | 78° |
| 2026-05-06 22:00 | 34.68152 | -117.60142 | 12993 ft | 176 kts | 78° |
| 2026-05-06 22:00 | 34.68309 | -117.58670 | 12995 ft | 176 kts | 77° |
| 2026-05-06 22:00 | 34.68465 | -117.57200 | 13000 ft | 175 kts | 77° |
| 2026-05-06 22:01 | 34.68622 | -117.55715 | 13002 ft | 175 kts | 78° |
| 2026-05-06 22:01 | 34.68776 | -117.54266 | 13004 ft | 175 kts | 77° |
| 2026-05-06 22:01 | 34.68933 | -117.52781 | 13012 ft | 176 kts | 78° |
| 2026-05-06 22:01 | 34.69087 | -117.51321 | 13017 ft | 177 kts | 78° |
| 2026-05-06 22:02 | 34.69243 | -117.49840 | 13019 ft | 177 kts | 78° |
| 2026-05-06 22:02 | 34.69398 | -117.48360 | 13024 ft | 177 kts | 78° |
| 2026-05-06 22:02 | 34.69555 | -117.46879 | 13024 ft | 176 kts | 78° |
| 2026-05-06 22:02 | 34.69710 | -117.45403 | 13027 ft | 176 kts | 78° |
| 2026-05-06 22:03 | 34.69864 | -117.43930 | 13027 ft | 176 kts | 78° |
| 2026-05-06 22:03 | 34.70019 | -117.42457 | 13021 ft | 175 kts | 78° |
| 2026-05-06 22:03 | 34.70173 | -117.40987 | 13021 ft | 176 kts | 78° |
| 2026-05-06 22:03 | 34.70328 | -117.39516 | 13024 ft | 176 kts | 78° |
| 2026-05-06 22:04 | 34.70481 | -117.38045 | 13022 ft | 175 kts | 78° |
| 2026-05-06 22:04 | 34.70635 | -117.36578 | 13022 ft | 175 kts | 78° |
| 2026-05-06 22:04 | 34.70789 | -117.35109 | 13022 ft | 176 kts | 78° |
| 2026-05-06 22:04 | 34.70942 | -117.33626 | 12983 ft | 178 kts | 78° |
| 2026-05-06 22:05 | 34.71096 | -117.32144 | 13010 ft | 176 kts | 78° |
| 2026-05-06 22:05 | 34.71250 | -117.30667 | 13006 ft | 176 kts | 78° |
| 2026-05-06 22:05 | 34.71403 | -117.29193 | 13004 ft | 176 kts | 78° |
| 2026-05-06 22:05 | 34.71557 | -117.27721 | 13011 ft | 176 kts | 78° |
| 2026-05-06 22:06 | 34.71709 | -117.26249 | 13012 ft | 176 kts | 78° |
| 2026-05-06 22:06 | 34.71860 | -117.24794 | 13005 ft | 177 kts | 78° |
| 2026-05-06 22:06 | 34.72013 | -117.23306 | 13000 ft | 177 kts | 78° |
| 2026-05-06 22:06 | 34.72167 | -117.21820 | 12998 ft | 177 kts | 78° |
| 2026-05-06 22:07 | 34.72320 | -117.20331 | 12991 ft | 176 kts | 78° |
| 2026-05-06 22:07 | 34.72424 | -117.19338 | 12987 ft | 176 kts | 78° |
| 2026-05-06 22:07 | 34.72576 | -117.17859 | 12986 ft | 177 kts | 78° |
| 2026-05-06 22:07 | 34.72728 | -117.16372 | 12988 ft | 177 kts | 78° |
| 2026-05-06 22:08 | 34.72930 | -117.14406 | 12974 ft | 177 kts | 78° |
| 2026-05-06 22:08 | 34.73033 | -117.13401 | 12969 ft | 177 kts | 78° |
| 2026-05-06 22:08 | 34.73186 | -117.11919 | 12967 ft | 177 kts | 78° |
| 2026-05-06 22:08 | 34.73335 | -117.10453 | 12968 ft | 177 kts | 78° |
| 2026-05-06 22:09 | 34.73487 | -117.08972 | 12937 ft | 177 kts | 78° |
| 2026-05-06 22:09 | 34.73639 | -117.07469 | 12938 ft | 176 kts | 78° |
| 2026-05-06 22:09 | 34.73790 | -117.06007 | 12940 ft | 177 kts | 78° |
| 2026-05-06 22:09 | 34.73940 | -117.04524 | 12945 ft | 177 kts | 78° |
| 2026-05-06 22:10 | 34.74090 | -117.03036 | 12940 ft | 177 kts | 78° |
| 2026-05-06 22:10 | 34.74241 | -117.01552 | 12944 ft | 177 kts | 78° |
| 2026-05-06 22:10 | 34.74390 | -117.00066 | 12944 ft | 177 kts | 78° |
| 2026-05-06 22:10 | 34.74540 | -116.98584 | 12948 ft | 176 kts | 78° |
| 2026-05-06 22:11 | 34.74692 | -116.97084 | 12949 ft | 176 kts | 78° |
| 2026-05-06 22:11 | 34.74841 | -116.95605 | 12948 ft | 177 kts | 78° |
| 2026-05-06 22:11 | 34.74988 | -116.94141 | 12950 ft | 177 kts | 78° |
| 2026-05-06 22:11 | 34.75138 | -116.92639 | 12952 ft | 177 kts | 78° |
| 2026-05-06 22:12 | 34.75288 | -116.91150 | 12949 ft | 177 kts | 78° |
| 2026-05-06 22:12 | 34.75437 | -116.89662 | 12954 ft | 177 kts | 78° |
| 2026-05-06 22:12 | 34.75586 | -116.88174 | 12957 ft | 177 kts | 78° |
| 2026-05-06 22:12 | 34.75806 | -116.86704 | 12959 ft | 176 kts | 68° |
| 2026-05-06 22:13 | 34.76360 | -116.85416 | 12958 ft | 174 kts | 52° |
| 2026-05-06 22:13 | 34.77152 | -116.84314 | 12961 ft | 173 kts | 46° |
| 2026-05-06 22:13 | 34.77947 | -116.83210 | 12960 ft | 173 kts | 47° |
| 2026-05-06 22:13 | 34.78742 | -116.82104 | 12960 ft | 174 kts | 47° |
| 2026-05-06 22:14 | 34.79542 | -116.81001 | 12961 ft | 174 kts | 47° |
| 2026-05-06 22:14 | 34.80341 | -116.79896 | 12963 ft | 174 kts | 47° |
| 2026-05-06 22:14 | 34.81139 | -116.78789 | 12958 ft | 174 kts | 47° |
| 2026-05-06 22:14 | 34.81938 | -116.77684 | 12961 ft | 174 kts | 47° |
| 2026-05-06 22:15 | 34.82736 | -116.76580 | 12961 ft | 174 kts | 47° |
| 2026-05-06 22:15 | 34.83528 | -116.75483 | 12960 ft | 175 kts | 47° |
| 2026-05-06 22:15 | 34.84338 | -116.74362 | 12960 ft | 174 kts | 47° |
| 2026-05-06 22:15 | 34.85134 | -116.73260 | 12961 ft | 173 kts | 47° |
| 2026-05-06 22:16 | 34.85931 | -116.72158 | 12956 ft | 173 kts | 47° |
| 2026-05-06 22:16 | 34.86714 | -116.71073 | 12956 ft | 173 kts | 47° |
| 2026-05-06 22:16 | 34.87508 | -116.69973 | 12959 ft | 173 kts | 47° |
| 2026-05-06 22:16 | 34.88301 | -116.68871 | 12965 ft | 173 kts | 47° |
| 2026-05-06 22:17 | 34.89100 | -116.67763 | 12960 ft | 174 kts | 47° |
| 2026-05-06 22:17 | 34.89898 | -116.66655 | 12956 ft | 174 kts | 47° |
| 2026-05-06 22:17 | 34.90696 | -116.65545 | 12957 ft | 174 kts | 47° |
| 2026-05-06 22:17 | 34.91496 | -116.64437 | 12956 ft | 174 kts | 47° |
| 2026-05-06 22:18 | 34.92295 | -116.63328 | 12952 ft | 174 kts | 47° |
| 2026-05-06 22:18 | 34.93091 | -116.62220 | 12948 ft | 174 kts | 47° |
| 2026-05-06 22:18 | 34.93885 | -116.61117 | 12946 ft | 174 kts | 47° |
| 2026-05-06 22:18 | 34.94685 | -116.60004 | 12943 ft | 174 kts | 47° |
| 2026-05-06 22:19 | 34.95482 | -116.58896 | 12940 ft | 174 kts | 47° |
| 2026-05-06 22:19 | 34.96271 | -116.57801 | 12939 ft | 174 kts | 46° |
| 2026-05-06 22:19 | 34.97116 | -116.56753 | 12936 ft | 174 kts | 44° |
| 2026-05-06 22:19 | 34.97965 | -116.55700 | 12935 ft | 174 kts | 44° |
| 2026-05-06 22:20 | 34.98812 | -116.54645 | 12921 ft | 174 kts | 44° |
| 2026-05-06 22:20 | 34.99659 | -116.53588 | 12929 ft | 174 kts | 44° |
| 2026-05-06 22:20 | 35.00506 | -116.52535 | 12925 ft | 174 kts | 44° |
| 2026-05-06 22:20 | 35.01353 | -116.51481 | 12923 ft | 174 kts | 44° |
| 2026-05-06 22:21 | 35.02198 | -116.50429 | 12918 ft | 174 kts | 44° |
| 2026-05-06 22:21 | 35.03047 | -116.49370 | 12921 ft | 174 kts | 44° |
| 2026-05-06 22:21 | 35.03894 | -116.48315 | 12921 ft | 174 kts | 44° |
| 2026-05-06 22:21 | 35.04739 | -116.47260 | 12926 ft | 174 kts | 44° |
| 2026-05-06 22:22 | 35.05586 | -116.46205 | 12928 ft | 174 kts | 44° |
| 2026-05-06 22:22 | 35.06436 | -116.45146 | 12924 ft | 175 kts | 44° |
| 2026-05-06 22:22 | 35.07289 | -116.44081 | 12927 ft | 175 kts | 44° |
| 2026-05-06 22:22 | 35.08141 | -116.43018 | 12924 ft | 175 kts | 44° |
| 2026-05-06 22:23 | 35.08993 | -116.41953 | 12927 ft | 175 kts | 44° |
| 2026-05-06 22:23 | 35.09845 | -116.40889 | 12928 ft | 175 kts | 44° |
| 2026-05-06 22:23 | 35.10685 | -116.39842 | 12929 ft | 175 kts | 44° |
| 2026-05-06 22:23 | 35.11537 | -116.38775 | 12935 ft | 177 kts | 44° |
| 2026-05-06 22:24 | 35.12409 | -116.37683 | 12921 ft | 177 kts | 44° |
| 2026-05-06 22:24 | 35.13268 | -116.36614 | 12922 ft | 177 kts | 44° |
| 2026-05-06 22:24 | 35.14125 | -116.35540 | 12920 ft | 176 kts | 44° |
| 2026-05-06 22:24 | 35.14980 | -116.34471 | 12931 ft | 176 kts | 44° |
| 2026-05-06 22:25 | 35.15834 | -116.33402 | 12926 ft | 176 kts | 44° |
| 2026-05-06 22:25 | 35.16689 | -116.32331 | 12925 ft | 176 kts | 44° |
| 2026-05-06 22:25 | 35.17531 | -116.31275 | 12923 ft | 176 kts | 44° |
| 2026-05-06 22:25 | 35.18398 | -116.30190 | 12922 ft | 176 kts | 44° |
| 2026-05-06 22:26 | 35.19256 | -116.29112 | 12918 ft | 177 kts | 44° |
| 2026-05-06 22:26 | 35.20116 | -116.28032 | 12918 ft | 178 kts | 44° |
| 2026-05-06 22:26 | 35.20971 | -116.26968 | 12920 ft | 177 kts | 44° |
| 2026-05-06 22:26 | 35.21828 | -116.25890 | 12920 ft | 177 kts | 44° |
| 2026-05-06 22:27 | 35.22685 | -116.24812 | 12917 ft | 176 kts | 44° |
| 2026-05-06 22:27 | 35.23542 | -116.23736 | 12919 ft | 176 kts | 44° |
| 2026-05-06 22:27 | 35.24421 | -116.22631 | 12917 ft | 177 kts | 44° |
| 2026-05-06 22:27 | 35.25279 | -116.21555 | 12920 ft | 176 kts | 44° |
| 2026-05-06 22:28 | 35.26134 | -116.20479 | 12914 ft | 176 kts | 44° |
| 2026-05-06 22:28 | 35.26989 | -116.19405 | 12910 ft | 176 kts | 44° |
| 2026-05-06 22:28 | 35.27845 | -116.18333 | 12913 ft | 177 kts | 44° |
| 2026-05-06 22:28 | 35.28703 | -116.17253 | 12910 ft | 178 kts | 44° |
| 2026-05-06 22:29 | 35.29554 | -116.16180 | 12916 ft | 178 kts | 44° |
| 2026-05-06 22:29 | 35.30416 | -116.15093 | 12917 ft | 178 kts | 44° |
| 2026-05-06 22:29 | 35.31282 | -116.14004 | 12917 ft | 178 kts | 44° |
| 2026-05-06 22:29 | 35.32158 | -116.12899 | 12913 ft | 179 kts | 44° |
| 2026-05-06 22:30 | 35.33022 | -116.11811 | 12914 ft | 178 kts | 44° |
| 2026-05-06 22:30 | 35.33871 | -116.10744 | 12913 ft | 177 kts | 44° |
| 2026-05-06 22:30 | 35.34732 | -116.09659 | 12914 ft | 177 kts | 44° |
| 2026-05-06 22:30 | 35.35596 | -116.08571 | 12918 ft | 176 kts | 44° |
| 2026-05-06 22:31 | 35.36448 | -116.07494 | 12921 ft | 176 kts | 44° |
| 2026-05-06 22:31 | 35.37303 | -116.06415 | 12920 ft | 176 kts | 44° |
| 2026-05-06 22:31 | 35.38157 | -116.05338 | 12919 ft | 176 kts | 44° |
| 2026-05-06 22:31 | 35.39011 | -116.04259 | 12923 ft | 176 kts | 44° |
| 2026-05-06 22:32 | 35.39867 | -116.03179 | 12926 ft | 177 kts | 44° |
| 2026-05-06 22:32 | 35.40725 | -116.02093 | 12929 ft | 178 kts | 44° |
| 2026-05-06 22:32 | 35.41588 | -116.01003 | 12921 ft | 178 kts | 44° |
| 2026-05-06 22:32 | 35.42451 | -115.99911 | 12926 ft | 178 kts | 44° |
| 2026-05-06 22:33 | 35.43321 | -115.98812 | 12928 ft | 178 kts | 44° |
| 2026-05-06 22:33 | 35.44182 | -115.97721 | 12932 ft | 178 kts | 44° |
| 2026-05-06 22:33 | 35.45045 | -115.96630 | 12929 ft | 178 kts | 44° |
| 2026-05-06 22:33 | 35.45905 | -115.95541 | 12929 ft | 178 kts | 44° |
| 2026-05-06 22:34 | 35.46755 | -115.94466 | 12935 ft | 178 kts | 44° |
| 2026-05-06 22:34 | 35.47616 | -115.93376 | 12934 ft | 178 kts | 44° |
| 2026-05-06 22:34 | 35.48475 | -115.92285 | 12933 ft | 178 kts | 44° |
| 2026-05-06 22:34 | 35.49335 | -115.91194 | 12951 ft | 177 kts | 44° |
| 2026-05-06 22:35 | 35.50194 | -115.90106 | 12952 ft | 178 kts | 44° |
| 2026-05-06 22:35 | 35.51053 | -115.89017 | 12952 ft | 178 kts | 45° |
| 2026-05-06 22:35 | 35.51913 | -115.87923 | 12955 ft | 178 kts | 45° |
| 2026-05-06 22:35 | 35.52776 | -115.86828 | 12958 ft | 179 kts | 44° |
| 2026-05-06 22:36 | 35.53642 | -115.85730 | 12957 ft | 179 kts | 45° |
| 2026-05-06 22:36 | 35.54506 | -115.84632 | 12961 ft | 179 kts | 44° |
| 2026-05-06 22:36 | 35.55372 | -115.83532 | 12964 ft | 179 kts | 44° |
| 2026-05-06 22:36 | 35.56232 | -115.82438 | 12921 ft | 175 kts | 45° |
| 2026-05-06 22:37 | 35.57082 | -115.81336 | 12603 ft | 179 kts | 45° |
| 2026-05-06 22:37 | 35.57941 | -115.80234 | 12292 ft | 177 kts | 45° |
| 2026-05-06 22:37 | 35.58777 | -115.79160 | 11960 ft | 172 kts | 45° |
| 2026-05-06 22:37 | 35.59602 | -115.78114 | 11640 ft | 169 kts | 45° |
| 2026-05-06 22:38 | 35.60406 | -115.77098 | 11320 ft | 167 kts | 45° |
| 2026-05-06 22:38 | 35.61209 | -115.76079 | 10996 ft | 165 kts | 45° |
| 2026-05-06 22:38 | 35.62013 | -115.75064 | 10682 ft | 168 kts | 45° |
| 2026-05-06 22:38 | 35.62830 | -115.74029 | 10380 ft | 169 kts | 45° |
| 2026-05-06 22:39 | 35.63652 | -115.72980 | 10075 ft | 172 kts | 45° |
| 2026-05-06 22:39 | 35.64479 | -115.71933 | 9972 ft | 170 kts | 44° |
| 2026-05-06 22:39 | 35.65313 | -115.70890 | 9979 ft | 172 kts | 45° |
| 2026-05-06 22:39 | 35.66153 | -115.69823 | 9978 ft | 176 kts | 45° |
| 2026-05-06 22:40 | 35.67001 | -115.68735 | 9981 ft | 176 kts | 44° |
| 2026-05-06 22:40 | 35.67850 | -115.67645 | 9983 ft | 177 kts | 45° |
| 2026-05-06 22:40 | 35.68696 | -115.66560 | 9981 ft | 179 kts | 45° |
| 2026-05-06 22:40 | 35.69560 | -115.65451 | 9977 ft | 180 kts | 45° |
| 2026-05-06 22:41 | 35.71295 | -115.63236 | 9981 ft | 180 kts | 45° |
| 2026-05-06 22:41 | 35.72161 | -115.62126 | 9981 ft | 179 kts | 45° |
| 2026-05-06 22:41 | 35.73026 | -115.61021 | 9986 ft | 179 kts | 45° |
| 2026-05-06 22:42 | 35.73889 | -115.59917 | 9984 ft | 179 kts | 45° |
| 2026-05-06 22:42 | 35.74753 | -115.58811 | 9983 ft | 181 kts | 45° |
| 2026-05-06 22:42 | 35.75628 | -115.57691 | 9975 ft | 181 kts | 44° |
| 2026-05-06 22:42 | 35.76498 | -115.56574 | 9983 ft | 181 kts | 45° |
| 2026-05-06 22:43 | 35.77372 | -115.55455 | 9984 ft | 182 kts | 44° |
| 2026-05-06 22:43 | 35.78253 | -115.54327 | 9984 ft | 183 kts | 44° |
| 2026-05-06 22:43 | 35.79135 | -115.53196 | 9982 ft | 183 kts | 44° |
| 2026-05-06 22:43 | 35.80013 | -115.52069 | 9982 ft | 183 kts | 44° |
| 2026-05-06 22:44 | 35.80880 | -115.50953 | 9986 ft | 183 kts | 44° |
| 2026-05-06 22:44 | 35.81765 | -115.49819 | 9988 ft | 184 kts | 44° |
| 2026-05-06 22:44 | 35.82651 | -115.48683 | 9979 ft | 183 kts | 44° |
| 2026-05-06 22:44 | 35.83531 | -115.47548 | 9987 ft | 185 kts | 44° |
| 2026-05-06 22:45 | 35.84426 | -115.46401 | 9985 ft | 185 kts | 44° |
| 2026-05-06 22:45 | 35.85328 | -115.45242 | 9986 ft | 185 kts | 44° |
| 2026-05-06 22:45 | 35.86221 | -115.44089 | 9869 ft | 186 kts | 45° |
| 2026-05-06 22:45 | 35.87081 | -115.42943 | 9491 ft | 180 kts | 45° |
| 2026-05-06 22:46 | 35.87925 | -115.41846 | 9087 ft | 178 kts | 44° |
| 2026-05-06 22:46 | 35.88783 | -115.40756 | 8675 ft | 177 kts | 44° |
| 2026-05-06 22:46 | 35.89637 | -115.39662 | 8274 ft | 178 kts | 44° |
| 2026-05-06 22:46 | 35.90424 | -115.38488 | 7876 ft | 178 kts | 60° |
| 2026-05-06 22:47 | 35.90643 | -115.36995 | 7482 ft | 179 kts | 91° |
| 2026-05-06 22:47 | 35.90619 | -115.35467 | 7098 ft | 178 kts | 91° |
| 2026-05-06 22:47 | 35.90598 | -115.33942 | 6716 ft | 178 kts | 91° |
| 2026-05-06 22:47 | 35.90581 | -115.32414 | 6342 ft | 179 kts | 91° |
| 2026-05-06 22:48 | 35.90564 | -115.30861 | 6013 ft | 183 kts | 91° |
| 2026-05-06 22:48 | 35.90560 | -115.29307 | 5995 ft | 180 kts | 91° |
| 2026-05-06 22:48 | 35.90565 | -115.27776 | 6001 ft | 178 kts | 91° |
| 2026-05-06 22:48 | 35.90565 | -115.26256 | 5994 ft | 176 kts | 90° |
| 2026-05-06 22:49 | 35.90565 | -115.24760 | 6000 ft | 175 kts | 90° |
| 2026-05-06 22:49 | 35.90561 | -115.23265 | 5996 ft | 173 kts | 90° |
| 2026-05-06 22:49 | 35.90562 | -115.21774 | 6000 ft | 174 kts | 90° |
| 2026-05-06 22:49 | 35.90553 | -115.20290 | 6001 ft | 173 kts | 90° |
| 2026-05-06 22:50 | 35.90542 | -115.18855 | 5999 ft | 162 kts | 92° |
| 2026-05-06 22:50 | 35.90515 | -115.17527 | 5831 ft | 151 kts | 92° |
| 2026-05-06 22:50 | 35.90536 | -115.16230 | 5506 ft | 153 kts | 89° |
| 2026-05-06 22:50 | 35.90610 | -115.14901 | 5120 ft | 159 kts | 78° |
| 2026-05-06 22:51 | 35.91290 | -115.13858 | 4692 ft | 159 kts | 24° |
| 2026-05-06 22:51 | 35.92366 | -115.13720 | 4297 ft | 150 kts | 347° |
| 2026-05-06 22:51 | 35.93352 | -115.13585 | 3983 ft | 147 kts | 0° |
| 2026-05-06 22:51 | 35.94260 | -115.13531 | 3527 ft | 115 kts | 350° |
| 2026-05-06 22:52 | 35.94996 | -115.13573 | 3014 ft | 99 kts | 351° |
| 2026-05-06 22:52 | 35.95633 | -115.13584 | 2731 ft | 88 kts | 10° |
| 2026-05-06 22:52 | 35.96224 | -115.13563 | 2531 ft | 79 kts | 7° |
| 2026-05-06 22:52 | 35.96695 | -115.13553 | 2474 ft | 58 kts | 2° |
| 2026-05-06 22:53 | 35.97037 | -115.13549 | 2454 ft | 33 kts | 359° |
| 2026-05-06 22:53 | 35.97094 | -115.13639 | 2452 ft | 1 kts | 326° |
| 2026-05-06 22:54 | 35.97112 | -115.13646 | 2453 ft | 8 kts | 360° |
| 2026-05-06 22:54 | 35.97200 | -115.13646 | 2449 ft | 17 kts | 359° |
| 2026-05-06 22:54 | 35.97347 | -115.13644 | 2450 ft | 25 kts | 360° |
| 2026-05-06 22:54 | 35.97443 | -115.13723 | 2438 ft | 22 kts | 272° |
| 2026-05-06 22:55 | 35.97440 | -115.13927 | 2433 ft | 11 kts | 239° |
| 2026-05-06 22:55 | 35.97419 | -115.13912 | 2435 ft | 0 kts | 122° |